sensor_id;sensor_type;location;lat;lon;timestamp;P1;durP1;ratioP1;P2;durP2;ratioP2
15496;SDS011;7850;52.204;5.942;2023-05-29T00:03:24;0.60;;;0.60;;
15496;SDS011;7850;52.204;5.942;2023-05-29T00:03:24;0.55;;;0.55;;
15496;SDS011;7850;52.204;5.942;2023-05-29T00:03:52;0.60;;;0.60;;
15496;SDS011;7850;52.204;5.942;2023-05-29T00:04:52;0.66;;;0.66;;
15496;SDS011;7850;52.204;5.942;2023-05-29T00:05:52;0.58;;;0.58;;
15496;SDS011;7850;52.204;5.942;2023-05-29T00:06:52;0.60;;;0.60;;
15496;SDS011;7850;52.204;5.942;2023-05-29T00:07:53;0.55;;;0.55;;
15496;SDS011;7850;52.204;5.942;2023-05-29T00:08:53;0.60;;;0.60;;
15496;SDS011;7850;52.204;5.942;2023-05-29T00:09:53;0.60;;;0.60;;
15496;SDS011;7850;52.204;5.942;2023-05-29T00:10:53;1.05;;;1.05;;
15496;SDS011;7850;52.204;5.942;2023-05-29T00:11:53;0.70;;;0.70;;
15496;SDS011;7850;52.204;5.942;2023-05-29T00:12:53;0.59;;;0.59;;
15496;SDS011;7850;52.204;5.942;2023-05-29T00:13:53;0.55;;;0.55;;
15496;SDS011;7850;52.204;5.942;2023-05-29T00:14:53;0.20;;;0.20;;
15496;SDS011;7850;52.204;5.942;2023-05-29T00:15:53;0.20;;;0.20;;
15496;SDS011;7850;52.204;5.942;2023-05-29T00:16:53;0.20;;;0.20;;
15496;SDS011;7850;52.204;5.942;2023-05-29T00:17:53;0.20;;;0.20;;
15496;SDS011;7850;52.204;5.942;2023-05-29T00:18:53;0.20;;;0.20;;
15496;SDS011;7850;52.204;5.942;2023-05-29T00:19:53;0.20;;;0.20;;
15496;SDS011;7850;52.204;5.942;2023-05-29T00:20:53;0.19;;;0.19;;
15496;SDS011;7850;52.204;5.942;2023-05-29T00:21:53;0.20;;;0.20;;
15496;SDS011;7850;52.204;5.942;2023-05-29T00:22:53;0.20;;;0.20;;
15496;SDS011;7850;52.204;5.942;2023-05-29T00:23:54;0.19;;;0.19;;
15496;SDS011;7850;52.204;5.942;2023-05-29T00:24:54;0.20;;;0.20;;
15496;SDS011;7850;52.204;5.942;2023-05-29T00:25:54;0.20;;;0.20;;
15496;SDS011;7850;52.204;5.942;2023-05-29T00:26:54;0.20;;;0.20;;
15496;SDS011;7850;52.204;5.942;2023-05-29T00:27:54;0.20;;;0.20;;
15496;SDS011;7850;52.204;5.942;2023-05-29T00:28:54;0.20;;;0.20;;
15496;SDS011;7850;52.204;5.942;2023-05-29T00:29:54;0.20;;;0.20;;
15496;SDS011;7850;52.204;5.942;2023-05-29T00:30:54;0.11;;;0.11;;
15496;SDS011;7850;52.204;5.942;2023-05-29T00:31:54;0.20;;;0.20;;
15496;SDS011;7850;52.204;5.942;2023-05-29T00:32:54;0.14;;;0.14;;
15496;SDS011;7850;52.204;5.942;2023-05-29T00:33:54;0.10;;;0.10;;
15496;SDS011;7850;52.204;5.942;2023-05-29T00:34:54;0.20;;;0.20;;
15496;SDS011;7850;52.204;5.942;2023-05-29T00:35:54;0.20;;;0.20;;
15496;SDS011;7850;52.204;5.942;2023-05-29T00:36:54;0.20;;;0.20;;
15496;SDS011;7850;52.204;5.942;2023-05-29T00:37:55;0.18;;;0.18;;
15496;SDS011;7850;52.204;5.942;2023-05-29T00:38:55;0.19;;;0.19;;
15496;SDS011;7850;52.204;5.942;2023-05-29T00:39:55;0.20;;;0.20;;
15496;SDS011;7850;52.204;5.942;2023-05-29T00:40:55;0.20;;;0.20;;
15496;SDS011;7850;52.204;5.942;2023-05-29T00:41:55;0.15;;;0.15;;
15496;SDS011;7850;52.204;5.942;2023-05-29T00:42:55;0.20;;;0.20;;
15496;SDS011;7850;52.204;5.942;2023-05-29T00:43:55;0.10;;;0.10;;
15496;SDS011;7850;52.204;5.942;2023-05-29T00:44:55;0.20;;;0.20;;
15496;SDS011;7850;52.204;5.942;2023-05-29T00:45:55;0.18;;;0.18;;
15496;SDS011;7850;52.204;5.942;2023-05-29T00:46:55;0.20;;;0.20;;
15496;SDS011;7850;52.204;5.942;2023-05-29T00:47:56;0.20;;;0.20;;
15496;SDS011;7850;52.204;5.942;2023-05-29T00:48:55;0.11;;;0.11;;
15496;SDS011;7850;52.204;5.942;2023-05-29T00:49:55;0.17;;;0.17;;
15496;SDS011;7850;52.204;5.942;2023-05-29T00:50:55;0.10;;;0.10;;
15496;SDS011;7850;52.204;5.942;2023-05-29T00:51:56;0.14;;;0.14;;
15496;SDS011;7850;52.204;5.942;2023-05-29T00:52:56;0.20;;;0.20;;
15496;SDS011;7850;52.204;5.942;2023-05-29T00:53:56;0.20;;;0.20;;
15496;SDS011;7850;52.204;5.942;2023-05-29T00:54:56;0.20;;;0.20;;
15496;SDS011;7850;52.204;5.942;2023-05-29T00:55:56;0.20;;;0.20;;
15496;SDS011;7850;52.204;5.942;2023-05-29T00:56:56;0.20;;;0.20;;
15496;SDS011;7850;52.204;5.942;2023-05-29T00:57:56;0.20;;;0.20;;
15496;SDS011;7850;52.204;5.942;2023-05-29T00:58:56;0.20;;;0.20;;
15496;SDS011;7850;52.204;5.942;2023-05-29T00:59:56;0.20;;;0.20;;
15496;SDS011;7850;52.204;5.942;2023-05-29T01:00:56;0.20;;;0.20;;
15496;SDS011;7850;52.204;5.942;2023-05-29T01:01:56;0.20;;;0.20;;
15496;SDS011;7850;52.204;5.942;2023-05-29T01:02:56;0.20;;;0.20;;
15496;SDS011;7850;52.204;5.942;2023-05-29T01:03:56;0.20;;;0.20;;
15496;SDS011;7850;52.204;5.942;2023-05-29T01:04:56;0.20;;;0.20;;
15496;SDS011;7850;52.204;5.942;2023-05-29T01:05:56;0.30;;;0.30;;
15496;SDS011;7850;52.204;5.942;2023-05-29T01:06:56;0.20;;;0.20;;
15496;SDS011;7850;52.204;5.942;2023-05-29T01:07:56;0.20;;;0.20;;
15496;SDS011;7850;52.204;5.942;2023-05-29T01:08:56;0.20;;;0.20;;
15496;SDS011;7850;52.204;5.942;2023-05-29T01:09:57;0.20;;;0.20;;
15496;SDS011;7850;52.204;5.942;2023-05-29T01:10:59;0.20;;;0.20;;
15496;SDS011;7850;52.204;5.942;2023-05-29T01:11:58;0.20;;;0.20;;
15496;SDS011;7850;52.204;5.942;2023-05-29T01:12:57;0.20;;;0.20;;
15496;SDS011;7850;52.204;5.942;2023-05-29T01:13:57;0.20;;;0.20;;
15496;SDS011;7850;52.204;5.942;2023-05-29T01:15:01;0.16;;;0.16;;
15496;SDS011;7850;52.204;5.942;2023-05-29T01:15:58;0.20;;;0.20;;
15496;SDS011;7850;52.204;5.942;2023-05-29T01:16:59;0.20;;;0.20;;
15496;SDS011;7850;52.204;5.942;2023-05-29T01:18:03;0.10;;;0.10;;
15496;SDS011;7850;52.204;5.942;2023-05-29T01:19:00;0.20;;;0.20;;
15496;SDS011;7850;52.204;5.942;2023-05-29T01:20:01;0.11;;;0.11;;
15496;SDS011;7850;52.204;5.942;2023-05-29T01:21:00;0.20;;;0.20;;
15496;SDS011;7850;52.204;5.942;2023-05-29T01:21:59;0.10;;;0.10;;
15496;SDS011;7850;52.204;5.942;2023-05-29T01:23:07;0.14;;;0.14;;
15496;SDS011;7850;52.204;5.942;2023-05-29T01:24:02;0.20;;;0.20;;
15496;SDS011;7850;52.204;5.942;2023-05-29T01:24:58;0.11;;;0.11;;
15496;SDS011;7850;52.204;5.942;2023-05-29T01:26:06;0.16;;;0.16;;
15496;SDS011;7850;52.204;5.942;2023-05-29T01:26:58;0.20;;;0.20;;
15496;SDS011;7850;52.204;5.942;2023-05-29T01:27:58;0.20;;;0.20;;
15496;SDS011;7850;52.204;5.942;2023-05-29T01:29:00;0.15;;;0.15;;
15496;SDS011;7850;52.204;5.942;2023-05-29T01:29:58;0.11;;;0.11;;
15496;SDS011;7850;52.204;5.942;2023-05-29T01:30:58;0.12;;;0.12;;
15496;SDS011;7850;52.204;5.942;2023-05-29T01:31:58;0.10;;;0.10;;
15496;SDS011;7850;52.204;5.942;2023-05-29T01:32:58;0.10;;;0.10;;
15496;SDS011;7850;52.204;5.942;2023-05-29T01:33:58;0.10;;;0.10;;
15496;SDS011;7850;52.204;5.942;2023-05-29T01:34:58;0.20;;;0.20;;
15496;SDS011;7850;52.204;5.942;2023-05-29T01:35:58;0.20;;;0.20;;
15496;SDS011;7850;52.204;5.942;2023-05-29T01:36:58;0.20;;;0.20;;
15496;SDS011;7850;52.204;5.942;2023-05-29T01:37:58;0.20;;;0.20;;
15496;SDS011;7850;52.204;5.942;2023-05-29T01:38:59;0.10;;;0.10;;
15496;SDS011;7850;52.204;5.942;2023-05-29T01:39:59;0.20;;;0.20;;
15496;SDS011;7850;52.204;5.942;2023-05-29T01:40:59;0.19;;;0.19;;
15496;SDS011;7850;52.204;5.942;2023-05-29T01:41:59;0.12;;;0.12;;
15496;SDS011;7850;52.204;5.942;2023-05-29T01:42:59;0.10;;;0.10;;
15496;SDS011;7850;52.204;5.942;2023-05-29T01:43:59;0.10;;;0.10;;
15496;SDS011;7850;52.204;5.942;2023-05-29T01:44:59;0.19;;;0.19;;
15496;SDS011;7850;52.204;5.942;2023-05-29T01:45:59;0.20;;;0.20;;
15496;SDS011;7850;52.204;5.942;2023-05-29T01:46:59;0.15;;;0.15;;
15496;SDS011;7850;52.204;5.942;2023-05-29T01:47:59;0.16;;;0.16;;
15496;SDS011;7850;52.204;5.942;2023-05-29T01:48:59;0.14;;;0.14;;
15496;SDS011;7850;52.204;5.942;2023-05-29T01:49:59;0.10;;;0.10;;
15496;SDS011;7850;52.204;5.942;2023-05-29T01:50:59;0.10;;;0.10;;
15496;SDS011;7850;52.204;5.942;2023-05-29T01:51:59;0.10;;;0.10;;
15496;SDS011;7850;52.204;5.942;2023-05-29T01:52:59;0.20;;;0.20;;
15496;SDS011;7850;52.204;5.942;2023-05-29T01:53:59;0.14;;;0.14;;
15496;SDS011;7850;52.204;5.942;2023-05-29T01:54:59;0.19;;;0.19;;
15496;SDS011;7850;52.204;5.942;2023-05-29T01:55:59;0.20;;;0.20;;
15496;SDS011;7850;52.204;5.942;2023-05-29T01:57:00;0.20;;;0.20;;
15496;SDS011;7850;52.204;5.942;2023-05-29T01:58:00;0.20;;;0.20;;
15496;SDS011;7850;52.204;5.942;2023-05-29T01:59:00;0.20;;;0.20;;
15496;SDS011;7850;52.204;5.942;2023-05-29T02:00:00;0.20;;;0.20;;
15496;SDS011;7850;52.204;5.942;2023-05-29T02:01:00;0.20;;;0.20;;
15496;SDS011;7850;52.204;5.942;2023-05-29T02:02:04;0.20;;;0.20;;
15496;SDS011;7850;52.204;5.942;2023-05-29T02:03:00;0.20;;;0.20;;
15496;SDS011;7850;52.204;5.942;2023-05-29T02:04:00;0.20;;;0.20;;
15496;SDS011;7850;52.204;5.942;2023-05-29T02:05:00;0.20;;;0.20;;
15496;SDS011;7850;52.204;5.942;2023-05-29T02:06:00;0.20;;;0.20;;
15496;SDS011;7850;52.204;5.942;2023-05-29T02:07:00;0.11;;;0.11;;
15496;SDS011;7850;52.204;5.942;2023-05-29T02:08:00;0.16;;;0.16;;
15496;SDS011;7850;52.204;5.942;2023-05-29T02:09:00;0.20;;;0.20;;
15496;SDS011;7850;52.204;5.942;2023-05-29T02:10:00;0.16;;;0.16;;
15496;SDS011;7850;52.204;5.942;2023-05-29T02:11:00;0.20;;;0.20;;
15496;SDS011;7850;52.204;5.942;2023-05-29T02:12:01;0.20;;;0.20;;
15496;SDS011;7850;52.204;5.942;2023-05-29T02:13:01;0.20;;;0.20;;
15496;SDS011;7850;52.204;5.942;2023-05-29T02:14:01;0.20;;;0.20;;
15496;SDS011;7850;52.204;5.942;2023-05-29T02:15:01;0.12;;;0.12;;
15496;SDS011;7850;52.204;5.942;2023-05-29T02:16:01;0.20;;;0.20;;
15496;SDS011;7850;52.204;5.942;2023-05-29T02:17:01;0.20;;;0.20;;
15496;SDS011;7850;52.204;5.942;2023-05-29T02:18:01;0.20;;;0.20;;
15496;SDS011;7850;52.204;5.942;2023-05-29T02:19:01;0.20;;;0.20;;
15496;SDS011;7850;52.204;5.942;2023-05-29T02:20:01;0.17;;;0.17;;
15496;SDS011;7850;52.204;5.942;2023-05-29T02:21:01;0.20;;;0.20;;
15496;SDS011;7850;52.204;5.942;2023-05-29T02:22:01;0.20;;;0.20;;
15496;SDS011;7850;52.204;5.942;2023-05-29T02:23:01;0.10;;;0.10;;
15496;SDS011;7850;52.204;5.942;2023-05-29T02:24:01;0.20;;;0.20;;
15496;SDS011;7850;52.204;5.942;2023-05-29T02:25:02;0.20;;;0.20;;
15496;SDS011;7850;52.204;5.942;2023-05-29T02:26:02;0.18;;;0.18;;
15496;SDS011;7850;52.204;5.942;2023-05-29T02:27:02;0.20;;;0.20;;
15496;SDS011;7850;52.204;5.942;2023-05-29T02:28:02;0.20;;;0.20;;
15496;SDS011;7850;52.204;5.942;2023-05-29T02:29:02;0.20;;;0.20;;
15496;SDS011;7850;52.204;5.942;2023-05-29T02:30:02;0.17;;;0.17;;
15496;SDS011;7850;52.204;5.942;2023-05-29T02:31:02;0.20;;;0.20;;
15496;SDS011;7850;52.204;5.942;2023-05-29T02:32:02;0.20;;;0.20;;
15496;SDS011;7850;52.204;5.942;2023-05-29T02:33:02;0.20;;;0.20;;
15496;SDS011;7850;52.204;5.942;2023-05-29T02:34:02;0.19;;;0.19;;
15496;SDS011;7850;52.204;5.942;2023-05-29T02:35:02;0.20;;;0.20;;
15496;SDS011;7850;52.204;5.942;2023-05-29T02:36:02;0.20;;;0.20;;
15496;SDS011;7850;52.204;5.942;2023-05-29T02:37:02;0.20;;;0.20;;
15496;SDS011;7850;52.204;5.942;2023-05-29T02:38:02;0.20;;;0.20;;
15496;SDS011;7850;52.204;5.942;2023-05-29T02:39:02;0.20;;;0.20;;
15496;SDS011;7850;52.204;5.942;2023-05-29T02:40:02;0.20;;;0.20;;
15496;SDS011;7850;52.204;5.942;2023-05-29T02:41:02;0.20;;;0.20;;
15496;SDS011;7850;52.204;5.942;2023-05-29T02:42:03;0.20;;;0.20;;
15496;SDS011;7850;52.204;5.942;2023-05-29T02:43:03;0.17;;;0.17;;
15496;SDS011;7850;52.204;5.942;2023-05-29T02:44:03;0.20;;;0.20;;
15496;SDS011;7850;52.204;5.942;2023-05-29T02:45:03;0.20;;;0.20;;
15496;SDS011;7850;52.204;5.942;2023-05-29T02:46:03;0.20;;;0.20;;
15496;SDS011;7850;52.204;5.942;2023-05-29T02:47:03;0.21;;;0.21;;
15496;SDS011;7850;52.204;5.942;2023-05-29T02:48:03;0.20;;;0.20;;
15496;SDS011;7850;52.204;5.942;2023-05-29T02:49:03;0.20;;;0.20;;
15496;SDS011;7850;52.204;5.942;2023-05-29T02:50:03;0.27;;;0.27;;
15496;SDS011;7850;52.204;5.942;2023-05-29T02:51:03;0.20;;;0.20;;
15496;SDS011;7850;52.204;5.942;2023-05-29T02:52:03;0.20;;;0.20;;
15496;SDS011;7850;52.204;5.942;2023-05-29T02:53:03;0.20;;;0.20;;
15496;SDS011;7850;52.204;5.942;2023-05-29T02:54:03;0.20;;;0.20;;
15496;SDS011;7850;52.204;5.942;2023-05-29T02:55:04;0.20;;;0.20;;
15496;SDS011;7850;52.204;5.942;2023-05-29T02:56:04;0.20;;;0.20;;
15496;SDS011;7850;52.204;5.942;2023-05-29T02:57:04;0.20;;;0.20;;
15496;SDS011;7850;52.204;5.942;2023-05-29T02:58:04;0.20;;;0.20;;
15496;SDS011;7850;52.204;5.942;2023-05-29T02:59:04;0.20;;;0.20;;
15496;SDS011;7850;52.204;5.942;2023-05-29T03:00:04;0.20;;;0.20;;
15496;SDS011;7850;52.204;5.942;2023-05-29T03:01:04;0.20;;;0.20;;
15496;SDS011;7850;52.204;5.942;2023-05-29T03:02:04;0.20;;;0.20;;
15496;SDS011;7850;52.204;5.942;2023-05-29T03:03:04;0.20;;;0.20;;
15496;SDS011;7850;52.204;5.942;2023-05-29T03:04:04;0.20;;;0.20;;
15496;SDS011;7850;52.204;5.942;2023-05-29T03:05:04;0.20;;;0.20;;
15496;SDS011;7850;52.204;5.942;2023-05-29T03:06:04;0.20;;;0.20;;
15496;SDS011;7850;52.204;5.942;2023-05-29T03:07:04;0.20;;;0.20;;
15496;SDS011;7850;52.204;5.942;2023-05-29T03:08:04;0.20;;;0.20;;
15496;SDS011;7850;52.204;5.942;2023-05-29T03:09:04;0.20;;;0.20;;
15496;SDS011;7850;52.204;5.942;2023-05-29T03:10:05;0.20;;;0.20;;
15496;SDS011;7850;52.204;5.942;2023-05-29T03:11:04;0.20;;;0.20;;
15496;SDS011;7850;52.204;5.942;2023-05-29T03:12:05;0.20;;;0.20;;
15496;SDS011;7850;52.204;5.942;2023-05-29T03:13:05;0.21;;;0.21;;
15496;SDS011;7850;52.204;5.942;2023-05-29T03:14:05;0.27;;;0.27;;
15496;SDS011;7850;52.204;5.942;2023-05-29T03:15:05;0.20;;;0.20;;
15496;SDS011;7850;52.204;5.942;2023-05-29T03:16:05;0.20;;;0.20;;
15496;SDS011;7850;52.204;5.942;2023-05-29T03:17:05;0.20;;;0.20;;
15496;SDS011;7850;52.204;5.942;2023-05-29T03:18:05;0.20;;;0.20;;
15496;SDS011;7850;52.204;5.942;2023-05-29T03:19:05;0.20;;;0.20;;
15496;SDS011;7850;52.204;5.942;2023-05-29T03:20:05;0.20;;;0.20;;
15496;SDS011;7850;52.204;5.942;2023-05-29T03:21:05;0.20;;;0.20;;
15496;SDS011;7850;52.204;5.942;2023-05-29T03:22:05;0.20;;;0.20;;
15496;SDS011;7850;52.204;5.942;2023-05-29T03:23:05;0.20;;;0.20;;
15496;SDS011;7850;52.204;5.942;2023-05-29T03:24:06;0.20;;;0.20;;
15496;SDS011;7850;52.204;5.942;2023-05-29T03:25:06;0.20;;;0.20;;
15496;SDS011;7850;52.204;5.942;2023-05-29T03:26:05;0.20;;;0.20;;
15496;SDS011;7850;52.204;5.942;2023-05-29T03:27:05;0.25;;;0.25;;
15496;SDS011;7850;52.204;5.942;2023-05-29T03:28:06;0.26;;;0.26;;
15496;SDS011;7850;52.204;5.942;2023-05-29T03:29:06;0.22;;;0.22;;
15496;SDS011;7850;52.204;5.942;2023-05-29T03:30:06;0.20;;;0.20;;
15496;SDS011;7850;52.204;5.942;2023-05-29T03:31:06;0.20;;;0.20;;
15496;SDS011;7850;52.204;5.942;2023-05-29T03:32:06;0.22;;;0.22;;
15496;SDS011;7850;52.204;5.942;2023-05-29T03:33:06;0.20;;;0.20;;
15496;SDS011;7850;52.204;5.942;2023-05-29T03:34:06;0.28;;;0.28;;
15496;SDS011;7850;52.204;5.942;2023-05-29T03:35:06;0.20;;;0.20;;
15496;SDS011;7850;52.204;5.942;2023-05-29T03:36:06;0.20;;;0.20;;
15496;SDS011;7850;52.204;5.942;2023-05-29T03:37:06;0.20;;;0.20;;
15496;SDS011;7850;52.204;5.942;2023-05-29T03:38:07;0.20;;;0.20;;
15496;SDS011;7850;52.204;5.942;2023-05-29T03:39:06;0.20;;;0.20;;
15496;SDS011;7850;52.204;5.942;2023-05-29T03:40:07;0.20;;;0.20;;
15496;SDS011;7850;52.204;5.942;2023-05-29T03:41:06;0.20;;;0.20;;
15496;SDS011;7850;52.204;5.942;2023-05-29T03:42:07;0.20;;;0.20;;
15496;SDS011;7850;52.204;5.942;2023-05-29T03:43:07;0.20;;;0.20;;
15496;SDS011;7850;52.204;5.942;2023-05-29T03:44:07;0.20;;;0.20;;
15496;SDS011;7850;52.204;5.942;2023-05-29T03:45:07;0.20;;;0.20;;
15496;SDS011;7850;52.204;5.942;2023-05-29T03:46:07;0.20;;;0.20;;
15496;SDS011;7850;52.204;5.942;2023-05-29T03:47:07;0.20;;;0.20;;
15496;SDS011;7850;52.204;5.942;2023-05-29T03:48:07;0.20;;;0.20;;
15496;SDS011;7850;52.204;5.942;2023-05-29T03:49:07;0.20;;;0.20;;
15496;SDS011;7850;52.204;5.942;2023-05-29T03:50:07;0.20;;;0.20;;
15496;SDS011;7850;52.204;5.942;2023-05-29T03:51:07;0.20;;;0.20;;
15496;SDS011;7850;52.204;5.942;2023-05-29T03:52:07;0.20;;;0.20;;
15496;SDS011;7850;52.204;5.942;2023-05-29T03:53:07;0.20;;;0.20;;
15496;SDS011;7850;52.204;5.942;2023-05-29T03:54:07;0.20;;;0.20;;
15496;SDS011;7850;52.204;5.942;2023-05-29T03:55:08;0.21;;;0.21;;
15496;SDS011;7850;52.204;5.942;2023-05-29T03:56:07;0.20;;;0.20;;
15496;SDS011;7850;52.204;5.942;2023-05-29T03:57:07;0.20;;;0.20;;
15496;SDS011;7850;52.204;5.942;2023-05-29T03:58:07;0.30;;;0.30;;
15496;SDS011;7850;52.204;5.942;2023-05-29T03:59:07;0.17;;;0.17;;
15496;SDS011;7850;52.204;5.942;2023-05-29T04:00:08;0.20;;;0.20;;
15496;SDS011;7850;52.204;5.942;2023-05-29T04:01:08;0.20;;;0.20;;
15496;SDS011;7850;52.204;5.942;2023-05-29T04:02:08;0.20;;;0.20;;
15496;SDS011;7850;52.204;5.942;2023-05-29T04:03:08;0.20;;;0.20;;
15496;SDS011;7850;52.204;5.942;2023-05-29T04:04:08;0.20;;;0.20;;
15496;SDS011;7850;52.204;5.942;2023-05-29T04:05:08;0.20;;;0.20;;
15496;SDS011;7850;52.204;5.942;2023-05-29T04:06:08;0.29;;;0.29;;
15496;SDS011;7850;52.204;5.942;2023-05-29T04:07:08;0.20;;;0.20;;
15496;SDS011;7850;52.204;5.942;2023-05-29T04:08:08;0.24;;;0.24;;
15496;SDS011;7850;52.204;5.942;2023-05-29T04:09:08;0.20;;;0.20;;
15496;SDS011;7850;52.204;5.942;2023-05-29T04:10:08;0.20;;;0.20;;
15496;SDS011;7850;52.204;5.942;2023-05-29T04:11:08;0.20;;;0.20;;
15496;SDS011;7850;52.204;5.942;2023-05-29T04:12:08;0.20;;;0.20;;
15496;SDS011;7850;52.204;5.942;2023-05-29T04:13:08;0.20;;;0.20;;
15496;SDS011;7850;52.204;5.942;2023-05-29T04:14:08;0.15;;;0.15;;
15496;SDS011;7850;52.204;5.942;2023-05-29T04:15:09;0.12;;;0.12;;
15496;SDS011;7850;52.204;5.942;2023-05-29T04:16:09;0.20;;;0.20;;
15496;SDS011;7850;52.204;5.942;2023-05-29T04:17:09;0.16;;;0.16;;
15496;SDS011;7850;52.204;5.942;2023-05-29T04:18:09;0.20;;;0.20;;
15496;SDS011;7850;52.204;5.942;2023-05-29T04:19:09;0.20;;;0.20;;
15496;SDS011;7850;52.204;5.942;2023-05-29T04:20:09;0.20;;;0.20;;
15496;SDS011;7850;52.204;5.942;2023-05-29T04:21:09;0.20;;;0.20;;
15496;SDS011;7850;52.204;5.942;2023-05-29T04:22:09;0.20;;;0.20;;
15496;SDS011;7850;52.204;5.942;2023-05-29T04:23:09;0.19;;;0.19;;
15496;SDS011;7850;52.204;5.942;2023-05-29T04:24:09;0.20;;;0.20;;
15496;SDS011;7850;52.204;5.942;2023-05-29T04:25:09;0.20;;;0.20;;
15496;SDS011;7850;52.204;5.942;2023-05-29T04:26:09;0.20;;;0.20;;
15496;SDS011;7850;52.204;5.942;2023-05-29T04:27:09;0.20;;;0.20;;
15496;SDS011;7850;52.204;5.942;2023-05-29T04:28:09;0.20;;;0.20;;
15496;SDS011;7850;52.204;5.942;2023-05-29T04:29:09;0.20;;;0.20;;
15496;SDS011;7850;52.204;5.942;2023-05-29T04:30:10;0.20;;;0.20;;
15496;SDS011;7850;52.204;5.942;2023-05-29T04:31:10;0.19;;;0.19;;
15496;SDS011;7850;52.204;5.942;2023-05-29T04:32:10;0.20;;;0.20;;
15496;SDS011;7850;52.204;5.942;2023-05-29T04:33:10;0.20;;;0.20;;
15496;SDS011;7850;52.204;5.942;2023-05-29T04:34:10;0.20;;;0.20;;
15496;SDS011;7850;52.204;5.942;2023-05-29T04:35:10;0.20;;;0.20;;
15496;SDS011;7850;52.204;5.942;2023-05-29T04:36:10;0.20;;;0.20;;
15496;SDS011;7850;52.204;5.942;2023-05-29T04:37:10;0.20;;;0.20;;
15496;SDS011;7850;52.204;5.942;2023-05-29T04:38:10;0.20;;;0.20;;
15496;SDS011;7850;52.204;5.942;2023-05-29T04:39:10;0.14;;;0.14;;
15496;SDS011;7850;52.204;5.942;2023-05-29T04:40:10;0.20;;;0.20;;
15496;SDS011;7850;52.204;5.942;2023-05-29T04:41:10;0.20;;;0.20;;
15496;SDS011;7850;52.204;5.942;2023-05-29T04:42:10;0.20;;;0.20;;
15496;SDS011;7850;52.204;5.942;2023-05-29T04:43:10;0.13;;;0.13;;
15496;SDS011;7850;52.204;5.942;2023-05-29T04:44:10;0.20;;;0.20;;
15496;SDS011;7850;52.204;5.942;2023-05-29T04:45:11;0.20;;;0.20;;
15496;SDS011;7850;52.204;5.942;2023-05-29T04:46:11;0.20;;;0.20;;
15496;SDS011;7850;52.204;5.942;2023-05-29T04:47:11;0.20;;;0.20;;
15496;SDS011;7850;52.204;5.942;2023-05-29T04:48:11;0.11;;;0.11;;
15496;SDS011;7850;52.204;5.942;2023-05-29T04:49:11;0.20;;;0.20;;
15496;SDS011;7850;52.204;5.942;2023-05-29T04:50:11;0.13;;;0.13;;
15496;SDS011;7850;52.204;5.942;2023-05-29T04:51:11;0.20;;;0.20;;
15496;SDS011;7850;52.204;5.942;2023-05-29T04:52:11;0.20;;;0.20;;
15496;SDS011;7850;52.204;5.942;2023-05-29T04:53:11;0.10;;;0.10;;
15496;SDS011;7850;52.204;5.942;2023-05-29T04:54:11;0.20;;;0.20;;
15496;SDS011;7850;52.204;5.942;2023-05-29T04:55:11;0.20;;;0.20;;
15496;SDS011;7850;52.204;5.942;2023-05-29T04:56:11;0.20;;;0.20;;
15496;SDS011;7850;52.204;5.942;2023-05-29T04:57:11;0.20;;;0.20;;
15496;SDS011;7850;52.204;5.942;2023-05-29T04:58:11;0.20;;;0.20;;
15496;SDS011;7850;52.204;5.942;2023-05-29T04:59:11;0.20;;;0.20;;
15496;SDS011;7850;52.204;5.942;2023-05-29T05:00:12;0.20;;;0.20;;
15496;SDS011;7850;52.204;5.942;2023-05-29T05:01:12;0.17;;;0.17;;
15496;SDS011;7850;52.204;5.942;2023-05-29T05:02:12;0.20;;;0.20;;
15496;SDS011;7850;52.204;5.942;2023-05-29T05:03:12;0.20;;;0.20;;
15496;SDS011;7850;52.204;5.942;2023-05-29T05:04:12;0.20;;;0.20;;
15496;SDS011;7850;52.204;5.942;2023-05-29T05:05:12;0.20;;;0.20;;
15496;SDS011;7850;52.204;5.942;2023-05-29T05:06:12;0.20;;;0.20;;
15496;SDS011;7850;52.204;5.942;2023-05-29T05:07:12;0.20;;;0.20;;
15496;SDS011;7850;52.204;5.942;2023-05-29T05:08:12;0.20;;;0.20;;
15496;SDS011;7850;52.204;5.942;2023-05-29T05:09:12;0.20;;;0.20;;
15496;SDS011;7850;52.204;5.942;2023-05-29T05:10:12;0.20;;;0.20;;
15496;SDS011;7850;52.204;5.942;2023-05-29T05:11:12;0.12;;;0.12;;
15496;SDS011;7850;52.204;5.942;2023-05-29T05:12:12;0.12;;;0.12;;
15496;SDS011;7850;52.204;5.942;2023-05-29T05:13:13;0.20;;;0.20;;
15496;SDS011;7850;52.204;5.942;2023-05-29T05:14:13;0.20;;;0.20;;
15496;SDS011;7850;52.204;5.942;2023-05-29T05:15:13;0.20;;;0.20;;
15496;SDS011;7850;52.204;5.942;2023-05-29T05:16:13;0.20;;;0.20;;
15496;SDS011;7850;52.204;5.942;2023-05-29T05:17:13;0.20;;;0.20;;
15496;SDS011;7850;52.204;5.942;2023-05-29T05:18:13;0.20;;;0.20;;
15496;SDS011;7850;52.204;5.942;2023-05-29T05:19:13;0.18;;;0.18;;
15496;SDS011;7850;52.204;5.942;2023-05-29T05:20:13;0.20;;;0.20;;
15496;SDS011;7850;52.204;5.942;2023-05-29T05:21:13;0.20;;;0.20;;
15496;SDS011;7850;52.204;5.942;2023-05-29T05:22:13;0.20;;;0.20;;
15496;SDS011;7850;52.204;5.942;2023-05-29T05:23:13;0.20;;;0.20;;
15496;SDS011;7850;52.204;5.942;2023-05-29T05:24:13;0.19;;;0.19;;
15496;SDS011;7850;52.204;5.942;2023-05-29T05:25:13;0.20;;;0.20;;
15496;SDS011;7850;52.204;5.942;2023-05-29T05:26:13;0.20;;;0.20;;
15496;SDS011;7850;52.204;5.942;2023-05-29T05:27:13;0.15;;;0.15;;
15496;SDS011;7850;52.204;5.942;2023-05-29T05:28:14;0.15;;;0.15;;
15496;SDS011;7850;52.204;5.942;2023-05-29T05:29:14;0.20;;;0.20;;
15496;SDS011;7850;52.204;5.942;2023-05-29T05:30:14;0.14;;;0.14;;
15496;SDS011;7850;52.204;5.942;2023-05-29T05:31:14;0.20;;;0.20;;
15496;SDS011;7850;52.204;5.942;2023-05-29T05:32:14;0.20;;;0.20;;
15496;SDS011;7850;52.204;5.942;2023-05-29T05:33:14;0.20;;;0.20;;
15496;SDS011;7850;52.204;5.942;2023-05-29T05:34:14;0.20;;;0.20;;
15496;SDS011;7850;52.204;5.942;2023-05-29T05:35:14;0.20;;;0.20;;
15496;SDS011;7850;52.204;5.942;2023-05-29T05:36:14;0.20;;;0.20;;
15496;SDS011;7850;52.204;5.942;2023-05-29T05:37:14;0.20;;;0.20;;
15496;SDS011;7850;52.204;5.942;2023-05-29T05:38:14;0.20;;;0.20;;
15496;SDS011;7850;52.204;5.942;2023-05-29T05:39:14;0.20;;;0.20;;
15496;SDS011;7850;52.204;5.942;2023-05-29T05:40:14;0.20;;;0.20;;
15496;SDS011;7850;52.204;5.942;2023-05-29T05:41:14;0.20;;;0.20;;
15496;SDS011;7850;52.204;5.942;2023-05-29T05:42:14;0.20;;;0.20;;
15496;SDS011;7850;52.204;5.942;2023-05-29T05:43:14;0.18;;;0.18;;
15496;SDS011;7850;52.204;5.942;2023-05-29T05:44:15;0.20;;;0.20;;
15496;SDS011;7850;52.204;5.942;2023-05-29T05:45:15;0.10;;;0.10;;
15496;SDS011;7850;52.204;5.942;2023-05-29T05:46:15;0.20;;;0.20;;
15496;SDS011;7850;52.204;5.942;2023-05-29T05:47:15;0.20;;;0.20;;
15496;SDS011;7850;52.204;5.942;2023-05-29T05:48:15;0.20;;;0.20;;
15496;SDS011;7850;52.204;5.942;2023-05-29T05:49:15;0.20;;;0.20;;
15496;SDS011;7850;52.204;5.942;2023-05-29T05:50:15;0.20;;;0.20;;
15496;SDS011;7850;52.204;5.942;2023-05-29T05:51:15;0.20;;;0.20;;
15496;SDS011;7850;52.204;5.942;2023-05-29T05:52:15;0.20;;;0.20;;
15496;SDS011;7850;52.204;5.942;2023-05-29T05:53:15;0.20;;;0.20;;
15496;SDS011;7850;52.204;5.942;2023-05-29T05:54:15;0.20;;;0.20;;
15496;SDS011;7850;52.204;5.942;2023-05-29T05:55:15;0.20;;;0.20;;
15496;SDS011;7850;52.204;5.942;2023-05-29T05:56:15;0.20;;;0.20;;
15496;SDS011;7850;52.204;5.942;2023-05-29T05:57:15;0.20;;;0.20;;
15496;SDS011;7850;52.204;5.942;2023-05-29T05:58:16;0.20;;;0.20;;
15496;SDS011;7850;52.204;5.942;2023-05-29T05:59:16;0.20;;;0.20;;
15496;SDS011;7850;52.204;5.942;2023-05-29T06:00:16;0.50;;;0.50;;
15496;SDS011;7850;52.204;5.942;2023-05-29T06:01:16;0.52;;;0.52;;
15496;SDS011;7850;52.204;5.942;2023-05-29T06:02:16;0.46;;;0.46;;
15496;SDS011;7850;52.204;5.942;2023-05-29T06:03:16;0.40;;;0.40;;
15496;SDS011;7850;52.204;5.942;2023-05-29T06:04:16;0.30;;;0.30;;
15496;SDS011;7850;52.204;5.942;2023-05-29T06:05:16;0.34;;;0.34;;
15496;SDS011;7850;52.204;5.942;2023-05-29T06:06:16;0.16;;;0.16;;
15496;SDS011;7850;52.204;5.942;2023-05-29T06:07:16;0.20;;;0.20;;
15496;SDS011;7850;52.204;5.942;2023-05-29T06:08:16;0.19;;;0.19;;